createdAt,value
2023-05-02T00:02:07.829Z,9.00
2023-05-02T00:04:35.209Z,9.00
2023-05-02T00:07:02.553Z,9.00
2023-05-02T00:09:30.374Z,9.20
2023-05-02T00:11:57.558Z,9.30
2023-05-02T00:14:25.564Z,9.50
2023-05-02T00:16:52.881Z,9.50
2023-05-02T00:19:19.984Z,9.60
2023-05-02T00:21:50.135Z,9.70
2023-05-02T00:24:18.696Z,9.80
2023-05-02T00:26:46.254Z,9.90
2023-05-02T00:29:13.339Z,10.00
2023-05-02T00:31:43.577Z,10.10
2023-05-02T00:34:10.838Z,10.10
2023-05-02T00:36:37.946Z,10.10
2023-05-02T00:39:05.433Z,10.10
2023-05-02T00:41:32.545Z,10.10
2023-05-02T00:43:59.803Z,10.10
2023-05-02T00:46:27.142Z,10.10
2023-05-02T00:48:54.360Z,10.10
2023-05-02T00:51:21.559Z,10.10
2023-05-02T00:53:49.188Z,10.10
2023-05-02T00:56:16.362Z,10.10
2023-05-02T00:58:44.881Z,10.10
2023-05-02T01:01:54.106Z,10.10
2023-05-02T01:04:36.254Z,10.00
2023-05-02T01:07:35.796Z,10.00
2023-05-02T01:10:39.561Z,10.00
2023-05-02T01:13:12.672Z,10.10
2023-05-02T01:15:42.117Z,10.00
2023-05-02T01:18:13.144Z,10.00
2023-05-02T01:20:45.023Z,10.00
2023-05-02T01:24:01.505Z,10.00
2023-05-02T01:26:43.036Z,10.00
2023-05-02T01:29:12.007Z,10.00
2023-05-02T01:31:46.071Z,10.00
2023-05-02T01:34:13.341Z,10.00
2023-05-02T01:36:46.964Z,10.00
2023-05-02T01:39:20.586Z,9.90
2023-05-02T01:41:52.061Z,9.90
2023-05-02T01:44:22.168Z,9.90
2023-05-02T01:46:52.030Z,9.90
2023-05-02T01:49:21.105Z,9.90
2023-05-02T01:51:50.795Z,9.90
2023-05-02T01:54:20.601Z,9.80
2023-05-02T01:56:49.317Z,9.90
2023-05-02T01:59:20.968Z,9.90
2023-05-02T02:01:50.677Z,9.90
2023-05-02T02:04:22.038Z,9.90
2023-05-02T02:07:02.657Z,9.90
2023-05-02T02:09:31.124Z,9.90
2023-05-02T02:12:27.416Z,9.90
2023-05-02T02:15:04.170Z,9.90
2023-05-02T02:17:43.499Z,9.80
2023-05-02T02:20:12.450Z,9.80
2023-05-02T02:22:43.124Z,9.80
2023-05-02T02:25:17.100Z,9.80
2023-05-02T02:27:44.480Z,9.70
2023-05-02T02:30:12.336Z,9.60
2023-05-02T02:32:39.762Z,9.60
2023-05-02T02:35:07.493Z,9.60
2023-05-02T02:38:28.235Z,9.60
2023-05-02T02:41:10.388Z,9.60
2023-05-02T02:44:02.056Z,9.50
2023-05-02T02:46:55.172Z,9.50
2023-05-02T02:49:43.948Z,9.50
2023-05-02T02:52:37.308Z,9.40
2023-05-02T02:55:40.610Z,9.40
2023-05-02T02:58:46.023Z,9.30
2023-05-02T03:01:19.895Z,9.30
2023-05-02T03:03:49.817Z,9.30
2023-05-02T03:06:18.548Z,9.20
2023-05-02T03:08:45.829Z,9.20
2023-05-02T03:11:18.182Z,9.20
2023-05-02T03:13:45.413Z,9.20
2023-05-02T03:16:37.399Z,9.20
2023-05-02T03:19:08.480Z,9.20
2023-05-02T03:21:36.313Z,9.20
2023-05-02T03:24:10.418Z,9.20
2023-05-02T03:26:37.638Z,9.20
2023-05-02T03:29:06.765Z,9.20
2023-05-02T03:31:38.591Z,9.30
2023-05-02T03:34:06.256Z,9.30
2023-05-02T03:36:34.402Z,9.30
2023-05-02T03:39:02.232Z,9.20
2023-05-02T03:41:30.173Z,9.20
2023-05-02T03:44:03.635Z,9.10
2023-05-02T03:46:31.607Z,9.10
2023-05-02T03:48:59.089Z,9.00
2023-05-02T03:51:26.801Z,9.00
2023-05-02T03:53:56.534Z,9.00
2023-05-02T03:56:24.326Z,8.90
2023-05-02T03:59:01.861Z,8.90
2023-05-02T04:01:28.952Z,8.90
2023-05-02T04:03:57.919Z,8.80
2023-05-02T04:06:27.193Z,8.80
2023-05-02T04:08:59.611Z,8.80
2023-05-02T04:11:32.254Z,8.80
2023-05-02T04:13:59.631Z,8.70
2023-05-02T04:16:26.913Z,8.80
2023-05-02T04:18:54.209Z,8.80
2023-05-02T04:21:21.662Z,8.80
2023-05-02T04:23:48.839Z,8.80
2023-05-02T04:26:16.523Z,8.80
2023-05-02T04:28:50.718Z,8.80
2023-05-02T04:31:18.355Z,8.80
2023-05-02T04:33:48.892Z,8.90
2023-05-02T04:36:19.736Z,8.90
2023-05-02T04:38:47.434Z,9.00
2023-05-02T04:41:17.218Z,9.00
2023-05-02T04:43:50.066Z,9.10
2023-05-02T04:46:18.764Z,9.10
2023-05-02T04:48:46.566Z,9.10
2023-05-02T04:51:16.780Z,9.10
2023-05-02T04:53:46.256Z,9.00
2023-05-02T04:56:13.491Z,9.10
2023-05-02T04:58:40.654Z,9.10
2023-05-02T05:01:09.991Z,9.10
2023-05-02T05:03:38.118Z,9.10
2023-05-02T05:06:07.196Z,9.00
2023-05-02T05:08:34.764Z,9.00
2023-05-02T05:11:04.057Z,9.00
2023-05-02T05:13:31.945Z,9.00
2023-05-02T05:15:59.253Z,9.00
2023-05-02T05:18:29.302Z,9.10
2023-05-02T05:20:56.630Z,9.20
2023-05-02T05:23:23.740Z,9.20
2023-05-02T05:25:51.372Z,9.20
2023-05-02T05:28:19.150Z,9.30
2023-05-02T05:30:47.135Z,9.40
2023-05-02T05:33:18.728Z,9.40
2023-05-02T05:35:46.002Z,9.30
2023-05-02T05:38:13.069Z,9.30
2023-05-02T05:40:42.523Z,9.30
2023-05-02T05:43:10.340Z,9.30
2023-05-02T05:45:39.117Z,9.40
2023-05-02T05:48:07.155Z,9.40
2023-05-02T05:50:39.963Z,9.40
2023-05-02T05:53:07.120Z,9.40
2023-05-02T05:55:37.426Z,9.50
2023-05-02T05:58:06.186Z,9.60
2023-05-02T06:00:36.400Z,9.60
2023-05-02T06:03:04.396Z,9.60
2023-05-02T06:05:36.503Z,9.60
2023-05-02T06:08:03.902Z,9.60
2023-05-02T06:10:32.544Z,9.70
2023-05-02T06:12:59.891Z,9.80
2023-05-02T06:15:35.214Z,9.80
2023-05-02T06:18:04.277Z,9.90
2023-05-02T06:20:31.440Z,9.90
2023-05-02T06:22:59.439Z,9.90
2023-05-02T06:25:26.781Z,9.90
2023-05-02T06:27:53.901Z,9.80
2023-05-02T06:30:20.988Z,9.80
2023-05-02T06:32:48.100Z,9.80
2023-05-02T06:35:15.275Z,9.80
2023-05-02T06:37:42.462Z,9.90
2023-05-02T06:40:14.615Z,9.90
2023-05-02T06:42:41.931Z,9.90
2023-05-02T06:45:23.534Z,10.00
2023-05-02T06:47:50.745Z,10.00
2023-05-02T06:50:18.113Z,10.00
2023-05-02T06:52:45.305Z,10.10
2023-05-02T06:55:12.334Z,10.20
2023-05-02T06:57:39.540Z,10.30
2023-05-02T07:00:07.542Z,10.40
2023-05-02T07:02:34.696Z,10.30
2023-05-02T07:05:01.779Z,10.40
2023-05-02T07:07:28.977Z,10.40
2023-05-02T07:09:56.168Z,10.50
2023-05-02T07:12:23.273Z,10.50
2023-05-02T07:14:50.529Z,10.50
2023-05-02T07:17:18.237Z,10.50
2023-05-02T07:19:45.772Z,10.60
2023-05-02T07:22:13.498Z,10.70
2023-05-02T07:24:41.921Z,10.80
2023-05-02T07:27:10.676Z,10.80
2023-05-02T07:29:38.092Z,10.90
2023-05-02T07:32:06.604Z,11.00
2023-05-02T07:34:33.766Z,11.10
2023-05-02T07:37:00.943Z,11.20
2023-05-02T07:39:28.179Z,11.20
2023-05-02T07:41:56.568Z,11.30
2023-05-02T07:44:24.282Z,11.60
2023-05-02T07:46:52.677Z,11.70
2023-05-02T07:49:20.530Z,11.70
2023-05-02T07:51:47.903Z,11.70
2023-05-02T07:54:22.298Z,11.60
2023-05-02T07:56:49.387Z,11.30
2023-05-02T07:59:16.433Z,11.20
2023-05-02T08:01:44.333Z,11.20
2023-05-02T08:04:13.155Z,11.30
2023-05-02T08:06:41.046Z,11.30
2023-05-02T08:09:09.322Z,11.40
2023-05-02T08:11:36.529Z,11.40
2023-05-02T08:14:03.657Z,11.40
2023-05-02T08:16:30.873Z,11.30
2023-05-02T08:18:58.011Z,11.30
2023-05-02T08:21:25.121Z,11.40
2023-05-02T08:23:52.206Z,11.50
2023-05-02T08:26:21.848Z,11.60
2023-05-02T08:28:49.007Z,11.90
2023-05-02T08:31:16.218Z,12.20
2023-05-02T08:33:43.907Z,12.40
2023-05-02T08:36:16.479Z,12.40
2023-05-02T08:38:45.881Z,12.50
2023-05-02T08:41:18.550Z,12.60
2023-05-02T08:43:47.119Z,12.80
2023-05-02T08:46:16.277Z,12.90
2023-05-02T08:48:45.940Z,12.90
2023-05-02T08:51:16.847Z,12.90
2023-05-02T08:53:45.122Z,12.80
2023-05-02T08:56:13.147Z,12.60
2023-05-02T08:58:41.562Z,12.50
2023-05-02T09:01:21.885Z,12.30
2023-05-02T09:03:49.517Z,12.20
2023-05-02T09:06:22.620Z,12.10
2023-05-02T09:08:54.830Z,12.10
2023-05-02T09:11:22.287Z,12.20
2023-05-02T09:13:52.318Z,12.20
2023-05-02T09:16:25.790Z,12.20
2023-05-02T09:18:58.681Z,12.10
2023-05-02T09:21:35.840Z,12.10
2023-05-02T09:24:18.391Z,12.10
2023-05-02T09:27:05.214Z,12.20
2023-05-02T09:29:38.979Z,12.40
2023-05-02T09:32:07.209Z,12.70
2023-05-02T09:34:34.818Z,13.00
2023-05-02T09:37:04.121Z,13.10
2023-05-02T09:39:31.578Z,13.20
2023-05-02T09:41:59.611Z,13.10
2023-05-02T09:44:36.970Z,13.10
2023-05-02T09:47:04.306Z,13.10
2023-05-02T09:49:45.444Z,13.20
2023-05-02T09:52:18.570Z,13.20
2023-05-02T09:54:50.737Z,13.10
2023-05-02T09:57:18.054Z,13.10
2023-05-02T09:59:57.142Z,13.20
2023-05-02T10:02:28.163Z,13.40
2023-05-02T10:04:59.225Z,13.60
2023-05-02T10:07:27.120Z,13.60
2023-05-02T10:09:58.637Z,13.50
2023-05-02T10:12:28.191Z,13.40
2023-05-02T10:15:01.436Z,13.50
2023-05-02T10:17:37.125Z,13.80
2023-05-02T10:20:06.902Z,14.00
2023-05-02T10:22:35.493Z,14.20
2023-05-02T10:25:04.105Z,14.30
2023-05-02T10:27:32.602Z,14.50
2023-05-02T10:30:01.536Z,14.30
2023-05-02T10:32:29.773Z,14.30
2023-05-02T10:35:06.044Z,14.20
2023-05-02T10:37:36.751Z,14.00
2023-05-02T10:40:06.634Z,13.90
2023-05-02T10:42:40.480Z,14.00
2023-05-02T10:45:35.405Z,14.30
2023-05-02T10:48:25.112Z,14.60
2023-05-02T10:51:04.227Z,14.80
2023-05-02T10:53:36.915Z,14.80
2023-05-02T10:56:10.283Z,14.70
2023-05-02T10:58:37.718Z,14.60
2023-05-02T11:01:29.797Z,14.50
2023-05-02T11:04:09.324Z,14.50
2023-05-02T11:06:59.579Z,14.50
2023-05-02T11:09:29.480Z,14.60
2023-05-02T11:11:57.545Z,14.60
2023-05-02T11:14:29.256Z,14.60
2023-05-02T11:17:01.829Z,14.80
2023-05-02T11:19:31.644Z,14.90
2023-05-02T11:22:20.717Z,15.10
2023-05-02T11:24:49.672Z,15.00
2023-05-02T11:27:33.473Z,14.90
2023-05-02T11:30:02.291Z,15.00
2023-05-02T11:32:45.443Z,15.20
2023-05-02T11:35:18.889Z,15.30
2023-05-02T11:37:59.456Z,15.30
2023-05-02T11:40:28.304Z,15.30
2023-05-02T11:42:57.147Z,15.40
2023-05-02T11:45:36.940Z,15.70
2023-05-02T11:48:09.233Z,15.90
2023-05-02T11:50:52.392Z,15.80
2023-05-02T11:53:25.918Z,15.50
2023-05-02T11:56:05.012Z,15.50
2023-05-02T11:58:34.167Z,15.60
2023-05-02T12:01:17.501Z,15.80
2023-05-02T12:03:45.451Z,15.60
2023-05-02T12:06:16.048Z,15.60
2023-05-02T12:08:44.906Z,15.80
2023-05-02T12:11:16.570Z,16.00
2023-05-02T12:13:49.883Z,16.00
2023-05-02T12:16:18.332Z,15.80
2023-05-02T12:18:47.460Z,15.60
2023-05-02T12:21:14.854Z,15.70
2023-05-02T12:23:42.487Z,15.90
2023-05-02T12:26:29.578Z,16.10
2023-05-02T12:28:58.226Z,16.20
2023-05-02T12:31:28.077Z,16.10
2023-05-02T12:33:57.845Z,16.00
2023-05-02T12:36:25.850Z,15.70
2023-05-02T12:38:57.227Z,15.50
2023-05-02T12:41:37.047Z,15.30
2023-05-02T12:44:06.137Z,15.10
2023-05-02T12:46:33.371Z,15.10
2023-05-02T12:49:09.850Z,15.30
2023-05-02T12:51:39.040Z,15.70
2023-05-02T12:54:07.130Z,16.10
2023-05-02T12:56:41.815Z,16.10
2023-05-02T12:59:09.576Z,16.20
2023-05-02T13:01:36.759Z,16.10
2023-05-02T13:04:05.649Z,16.00
2023-05-02T13:06:33.024Z,15.80
2023-05-02T13:09:00.227Z,15.60
2023-05-02T13:11:28.088Z,15.80
2023-05-02T13:13:55.844Z,15.90
2023-05-02T13:16:23.086Z,15.90
2023-05-02T13:18:50.417Z,16.00
2023-05-02T13:21:17.540Z,16.00
2023-05-02T13:23:47.596Z,15.80
2023-05-02T13:26:15.091Z,15.50
2023-05-02T13:28:42.166Z,15.40
2023-05-02T13:31:09.280Z,15.70
2023-05-02T13:33:36.415Z,16.00
2023-05-02T13:36:03.667Z,16.30
2023-05-02T13:38:31.020Z,16.30
2023-05-02T13:40:58.094Z,16.50
2023-05-02T13:43:25.315Z,16.70
2023-05-02T13:45:52.834Z,16.60
2023-05-02T13:48:20.123Z,16.40
2023-05-02T13:50:47.227Z,16.10
2023-05-02T13:53:14.405Z,15.90
2023-05-02T13:55:41.848Z,15.90
2023-05-02T13:58:08.989Z,15.80
2023-05-02T14:00:36.245Z,15.60
2023-05-02T14:03:03.542Z,15.70
2023-05-02T14:05:30.783Z,15.90
2023-05-02T14:07:57.880Z,16.10
2023-05-02T14:10:25.555Z,16.20
2023-05-02T14:12:53.558Z,16.10
2023-05-02T14:15:21.061Z,16.00
2023-05-02T14:17:50.074Z,16.00
2023-05-02T14:20:17.437Z,15.90
2023-05-02T14:22:44.610Z,16.10
2023-05-02T14:25:12.857Z,16.40
2023-05-02T14:27:39.937Z,16.70
2023-05-02T14:30:08.429Z,17.00
2023-05-02T14:32:35.904Z,17.10
2023-05-02T14:35:03.196Z,17.10
2023-05-02T14:37:30.494Z,17.10
2023-05-02T14:39:59.279Z,17.30
2023-05-02T14:42:26.634Z,17.30
2023-05-02T14:44:53.675Z,17.30
2023-05-02T14:47:21.131Z,17.40
2023-05-02T14:49:48.277Z,17.30
2023-05-02T14:52:15.391Z,17.40
2023-05-02T14:54:42.512Z,17.60
2023-05-02T14:57:09.744Z,17.80
2023-05-02T14:59:38.631Z,18.10
2023-05-02T15:02:06.192Z,18.40
2023-05-02T15:04:33.538Z,18.30
2023-05-02T15:07:01.526Z,18.50
2023-05-02T15:09:29.204Z,18.50
2023-05-02T15:11:56.776Z,18.80
2023-05-02T15:14:23.978Z,18.80
2023-05-02T15:16:51.461Z,19.20
2023-05-02T15:19:18.545Z,19.40
2023-05-02T15:21:45.625Z,19.60
2023-05-02T15:24:12.708Z,19.50
2023-05-02T15:26:41.076Z,19.20
2023-05-02T15:29:08.190Z,19.40
2023-05-02T15:31:35.650Z,19.10
2023-05-02T15:34:03.182Z,18.90
2023-05-02T15:36:31.050Z,18.90
2023-05-02T15:38:58.399Z,19.00
2023-05-02T15:41:28.779Z,19.00
2023-05-02T15:43:57.165Z,19.30
2023-05-02T15:46:24.821Z,19.50
2023-05-02T15:48:52.411Z,19.50
2023-05-02T15:51:19.513Z,19.00
2023-05-02T15:53:49.904Z,18.90
2023-05-02T15:56:17.028Z,19.00
2023-05-02T15:58:44.274Z,19.40
2023-05-02T16:01:11.404Z,19.70
2023-05-02T16:03:38.783Z,19.50
2023-05-02T16:06:07.645Z,19.60
2023-05-02T16:08:34.848Z,19.70
2023-05-02T16:11:01.930Z,19.80
2023-05-02T16:13:29.100Z,20.10
2023-05-02T16:15:56.293Z,20.20
2023-05-02T16:18:28.066Z,20.20
2023-05-02T16:20:58.510Z,20.20
2023-05-02T16:23:26.382Z,20.40
2023-05-02T16:26:01.667Z,20.20
2023-05-02T16:28:29.402Z,20.30
2023-05-02T16:30:56.810Z,20.00
2023-05-02T16:33:24.127Z,19.40
2023-05-02T16:36:02.077Z,19.20
2023-05-02T16:38:29.330Z,19.70
2023-05-02T16:40:57.352Z,19.70
2023-05-02T16:43:24.808Z,19.60
2023-05-02T16:46:06.857Z,19.40
2023-05-02T16:48:35.316Z,19.10
2023-05-02T16:51:04.254Z,19.40
2023-05-02T16:53:31.982Z,19.40
2023-05-02T16:55:59.766Z,19.20
2023-05-02T16:58:29.190Z,18.50
2023-05-02T17:00:56.845Z,17.80
2023-05-02T17:03:24.087Z,17.20
2023-05-02T17:05:51.246Z,16.70
2023-05-02T17:08:18.288Z,16.40
2023-05-02T17:10:50.193Z,16.00
2023-05-02T17:13:17.339Z,15.80
2023-05-02T17:15:44.460Z,15.70
2023-05-02T17:18:11.787Z,15.40
2023-05-02T17:20:39.221Z,15.30
2023-05-02T17:23:06.387Z,15.10
2023-05-02T17:25:33.480Z,15.00
2023-05-02T17:28:00.543Z,14.80
2023-05-02T17:30:29.060Z,14.70
2023-05-02T17:32:56.428Z,14.70
2023-05-02T17:35:23.573Z,14.60
2023-05-02T17:37:50.650Z,14.60
2023-05-02T17:40:18.070Z,14.60
2023-05-02T17:42:48.984Z,14.60
2023-05-02T17:45:16.791Z,14.50
2023-05-02T17:47:43.932Z,14.30
2023-05-02T17:50:11.759Z,14.30
2023-05-02T17:52:39.533Z,14.20
2023-05-02T17:55:08.382Z,14.20
2023-05-02T17:57:35.713Z,14.10
2023-05-02T18:00:04.618Z,13.90
2023-05-02T18:02:33.547Z,13.90
2023-05-02T18:05:03.056Z,13.80
2023-05-02T18:07:31.843Z,13.70
2023-05-02T18:10:02.212Z,13.70
2023-05-02T18:12:29.953Z,13.60
2023-05-02T18:14:57.100Z,13.50
2023-05-02T18:17:24.618Z,13.30
2023-05-02T18:19:51.730Z,13.30
2023-05-02T18:22:21.303Z,13.30
2023-05-02T18:24:49.645Z,13.20
2023-05-02T18:27:17.682Z,13.10
2023-05-02T18:29:44.884Z,13.00
2023-05-02T18:32:12.047Z,12.90
2023-05-02T18:34:39.334Z,12.80
2023-05-02T18:37:07.069Z,12.80
2023-05-02T18:39:35.370Z,12.70
2023-05-02T18:42:04.150Z,12.60
2023-05-02T18:44:31.788Z,12.50
2023-05-02T18:46:59.299Z,12.40
2023-05-02T18:49:26.755Z,12.30
2023-05-02T18:51:57.660Z,12.20
2023-05-02T18:54:24.893Z,12.10
2023-05-02T18:56:52.020Z,12.10
2023-05-02T18:59:19.242Z,12.00
2023-05-02T19:01:50.111Z,11.90
2023-05-02T19:04:17.243Z,11.80
2023-05-02T19:06:45.869Z,11.60
2023-05-02T19:09:15.613Z,11.60
2023-05-02T19:11:42.888Z,11.60
2023-05-02T19:14:11.907Z,11.50
2023-05-02T19:16:40.540Z,11.40
2023-05-02T19:19:08.509Z,11.30
2023-05-02T19:21:36.129Z,11.30
2023-05-02T19:24:03.962Z,11.20
2023-05-02T19:26:31.104Z,11.20
2023-05-02T19:28:58.469Z,11.10
2023-05-02T19:31:25.870Z,10.90
2023-05-02T19:33:53.081Z,10.80
2023-05-02T19:36:24.226Z,10.70
2023-05-02T19:38:53.931Z,10.70
2023-05-02T19:41:24.903Z,10.70
2023-05-02T19:43:52.649Z,10.70
2023-05-02T19:46:20.607Z,10.60
2023-05-02T19:48:47.850Z,10.50
2023-05-02T19:51:14.901Z,10.40
2023-05-02T19:53:42.121Z,10.30
2023-05-02T19:56:09.222Z,10.20
2023-05-02T19:58:36.425Z,10.20
2023-05-02T20:01:03.873Z,10.10
2023-05-02T20:03:31.287Z,10.10
2023-05-02T20:05:58.793Z,10.10
2023-05-02T20:08:27.957Z,10.00
2023-05-02T20:10:56.274Z,10.00
2023-05-02T20:13:23.719Z,10.00
2023-05-02T20:15:52.782Z,9.90
2023-05-02T20:18:20.821Z,9.90
2023-05-02T20:20:47.926Z,9.90
2023-05-02T20:23:16.046Z,9.80
2023-05-02T20:25:43.782Z,9.70
2023-05-02T20:28:11.044Z,9.70
2023-05-02T20:30:42.059Z,9.60
2023-05-02T20:33:15.537Z,9.50
2023-05-02T20:35:44.273Z,9.40
2023-05-02T20:38:12.106Z,9.30
2023-05-02T20:40:40.730Z,9.20
2023-05-02T20:43:07.924Z,9.10
2023-05-02T20:45:35.224Z,9.00
2023-05-02T20:48:02.322Z,8.90
2023-05-02T20:50:29.607Z,8.80
2023-05-02T20:52:56.695Z,8.80
2023-05-02T20:55:24.595Z,8.70
2023-05-02T20:57:53.213Z,8.60
2023-05-02T21:00:22.755Z,8.60
2023-05-02T21:02:50.087Z,8.50
2023-05-02T21:05:17.270Z,8.40
2023-05-02T21:07:44.872Z,8.30
2023-05-02T21:10:12.164Z,8.20
2023-05-02T21:12:39.550Z,8.10
2023-05-02T21:15:08.275Z,8.10
2023-05-02T21:17:35.712Z,8.00
2023-05-02T21:20:03.187Z,8.00
2023-05-02T21:22:30.436Z,8.00
2023-05-02T21:24:57.536Z,7.90
2023-05-02T21:27:24.823Z,7.90
2023-05-02T21:29:54.861Z,7.80
2023-05-02T21:32:22.471Z,7.80
2023-05-02T21:34:49.657Z,7.70
2023-05-02T21:37:16.760Z,7.70
2023-05-02T21:39:43.904Z,7.70
2023-05-02T21:42:10.925Z,7.70
2023-05-02T21:44:38.070Z,7.60
2023-05-02T21:47:05.236Z,7.60
2023-05-02T21:49:32.497Z,7.50
2023-05-02T21:51:59.732Z,7.40
2023-05-02T21:54:26.884Z,7.40
2023-05-02T21:56:54.395Z,7.30
2023-05-02T21:59:21.569Z,7.30
2023-05-02T22:01:48.778Z,7.30
2023-05-02T22:04:16.624Z,7.30
2023-05-02T22:06:49.983Z,7.30
2023-05-02T22:09:18.362Z,7.30
2023-05-02T22:11:45.589Z,7.30
2023-05-02T22:14:13.200Z,7.30
2023-05-02T22:16:40.405Z,7.30
2023-05-02T22:19:07.598Z,7.30
2023-05-02T22:21:34.751Z,7.30
2023-05-02T22:24:01.824Z,7.30
2023-05-02T22:26:28.994Z,7.30
2023-05-02T22:28:56.094Z,7.30
2023-05-02T22:31:23.214Z,7.30
2023-05-02T22:33:50.412Z,7.20
2023-05-02T22:36:18.012Z,7.20
2023-05-02T22:38:45.118Z,7.20
2023-05-02T22:41:12.188Z,7.20
2023-05-02T22:43:39.323Z,7.10
2023-05-02T22:46:07.040Z,7.10
2023-05-02T22:48:34.251Z,7.00
2023-05-02T22:51:01.609Z,6.90
2023-05-02T22:53:30.174Z,6.80
2023-05-02T22:55:57.340Z,6.80
2023-05-02T22:58:24.568Z,6.80
2023-05-02T23:00:51.920Z,6.80
2023-05-02T23:03:19.159Z,6.80
2023-05-02T23:05:47.034Z,6.70
2023-05-02T23:08:14.712Z,6.70
2023-05-02T23:10:41.773Z,6.70
2023-05-02T23:13:08.968Z,6.70
2023-05-02T23:15:36.421Z,6.60
2023-05-02T23:18:03.910Z,6.50
2023-05-02T23:20:33.337Z,6.50
2023-05-02T23:23:01.743Z,6.40
2023-05-02T23:25:29.941Z,6.40
2023-05-02T23:27:57.021Z,6.40
2023-05-02T23:30:24.193Z,6.40
2023-05-02T23:32:51.755Z,6.30
2023-05-02T23:35:19.057Z,6.30
2023-05-02T23:37:46.283Z,6.30
2023-05-02T23:40:13.493Z,6.20
2023-05-02T23:42:40.973Z,6.20
2023-05-02T23:45:09.500Z,6.10
2023-05-02T23:47:37.946Z,6.10
2023-05-02T23:50:06.307Z,6.10
2023-05-02T23:52:33.911Z,6.00
2023-05-02T23:55:01.080Z,6.00
2023-05-02T23:57:30.524Z,6.00
2023-05-02T23:59:57.627Z,5.90
